sensor_id;sensor_type;location;lat;lon;timestamp;pressure;altitude;pressure_sealevel;temperature;humidity
41632;BME280;37452;51.938;4.624;2022-09-20T00:02:15;77850.00;;;-142.75;100.00
41632;BME280;37452;51.938;4.624;2022-09-20T00:04:40;77836.22;;;-142.75;100.00
41632;BME280;37452;51.938;4.624;2022-09-20T00:07:05;77834.25;;;-142.75;100.00
41632;BME280;37452;51.938;4.624;2022-09-20T00:09:30;77822.44;;;-142.75;100.00
41632;BME280;37452;51.938;4.624;2022-09-20T00:11:56;77822.44;;;-142.75;100.00
41632;BME280;37452;51.938;4.624;2022-09-20T00:14:21;77814.56;;;-142.75;100.00
41632;BME280;37452;51.938;4.624;2022-09-20T00:16:46;77814.56;;;-142.75;100.00
41632;BME280;37452;51.938;4.624;2022-09-20T00:19:16;77820.47;;;-142.75;100.00
41632;BME280;37452;51.938;4.624;2022-09-20T00:21:41;77818.50;;;-142.75;100.00
41632;BME280;37452;51.938;4.624;2022-09-20T00:24:06;77814.56;;;-142.75;100.00
41632;BME280;37452;51.938;4.624;2022-09-20T00:26:31;77828.34;;;-142.75;100.00
41632;BME280;37452;51.938;4.624;2022-09-20T00:28:57;77822.44;;;-142.75;100.00
41632;BME280;37452;51.938;4.624;2022-09-20T00:31:22;77816.53;;;-142.75;100.00
41632;BME280;37452;51.938;4.624;2022-09-20T00:33:48;77810.63;;;-142.75;100.00
41632;BME280;37452;51.938;4.624;2022-09-20T00:36:31;77814.56;;;-142.75;100.00
41632;BME280;37452;51.938;4.624;2022-09-20T00:38:57;77826.38;;;-142.75;100.00
41632;BME280;37452;51.938;4.624;2022-09-20T00:41:23;77834.25;;;-142.75;100.00
41632;BME280;37452;51.938;4.624;2022-09-20T00:43:48;77836.22;;;-142.75;100.00
41632;BME280;37452;51.938;4.624;2022-09-20T00:46:25;77857.88;;;-142.75;100.00
41632;BME280;37452;51.938;4.624;2022-09-20T00:48:54;77865.75;;;-142.75;100.00
41632;BME280;37452;51.938;4.624;2022-09-20T00:51:24;77853.94;;;-142.75;100.00
41632;BME280;37452;51.938;4.624;2022-09-20T00:53:51;77861.81;;;-142.75;100.00
41632;BME280;37452;51.938;4.624;2022-09-20T00:56:24;77873.63;;;-142.75;100.00
41632;BME280;37452;51.938;4.624;2022-09-20T00:58:56;77871.66;;;-142.75;100.00
41632;BME280;37452;51.938;4.624;2022-09-20T01:01:26;77861.81;;;-142.75;100.00
41632;BME280;37452;51.938;4.624;2022-09-20T01:03:51;77865.75;;;-142.75;100.00
41632;BME280;37452;51.938;4.624;2022-09-20T01:06:17;77861.81;;;-142.75;100.00
41632;BME280;37452;51.938;4.624;2022-09-20T01:08:44;77865.75;;;-142.75;100.00
41632;BME280;37452;51.938;4.624;2022-09-20T01:11:11;77846.06;;;-142.75;100.00
41632;BME280;37452;51.938;4.624;2022-09-20T01:13:36;77848.03;;;-142.75;100.00
41632;BME280;37452;51.938;4.624;2022-09-20T01:16:02;77824.41;;;-142.75;100.00
41632;BME280;37452;51.938;4.624;2022-09-20T01:18:27;77822.44;;;-142.75;100.00
41632;BME280;37452;51.938;4.624;2022-09-20T01:20:53;77810.63;;;-142.75;100.00
41632;BME280;37452;51.938;4.624;2022-09-20T01:23:34;77806.69;;;-142.75;100.00
41632;BME280;37452;51.938;4.624;2022-09-20T01:26:12;77804.72;;;-142.75;100.00
41632;BME280;37452;51.938;4.624;2022-09-20T01:28:43;77804.72;;;-142.75;100.00
41632;BME280;37452;51.938;4.624;2022-09-20T01:31:23;77794.88;;;-142.75;100.00
41632;BME280;37452;51.938;4.624;2022-09-20T01:36:33;77790.94;;;-142.75;100.00
41632;BME280;37452;51.938;4.624;2022-09-20T01:41:27;77794.88;;;-142.75;100.00
41632;BME280;37452;51.938;4.624;2022-09-20T01:43:57;77802.75;;;-142.75;100.00
41632;BME280;37452;51.938;4.624;2022-09-20T01:46:30;77818.50;;;-142.75;100.00
41632;BME280;37452;51.938;4.624;2022-09-20T01:54:32;77838.19;;;-142.75;100.00
41632;BME280;37452;51.938;4.624;2022-09-20T02:23:50;77812.59;;;-142.75;100.00
41632;BME280;37452;51.938;4.624;2022-09-20T02:31:05;77798.81;;;-142.75;100.00
41632;BME280;37452;51.938;4.624;2022-09-20T02:45:51;77818.50;;;-142.75;100.00
41632;BME280;37452;51.938;4.624;2022-09-20T02:48:22;77826.38;;;-142.75;100.00
41632;BME280;37452;51.938;4.624;2022-09-20T02:50:53;77838.19;;;-142.75;100.00
41632;BME280;37452;51.938;4.624;2022-09-20T02:53:38;77836.22;;;-142.75;100.00
41632;BME280;37452;51.938;4.624;2022-09-20T02:56:18;77844.09;;;-142.75;100.00
41632;BME280;37452;51.938;4.624;2022-09-20T03:11:46;77836.22;;;-142.75;100.00
41632;BME280;37452;51.938;4.624;2022-09-20T03:16:43;77834.25;;;-142.75;100.00
41632;BME280;37452;51.938;4.624;2022-09-20T03:19:23;77822.44;;;-142.75;100.00
41632;BME280;37452;51.938;4.624;2022-09-20T03:24:39;77818.50;;;-142.75;100.00
41632;BME280;37452;51.938;4.624;2022-09-20T03:45:47;77828.34;;;-142.75;100.00
41632;BME280;37452;51.938;4.624;2022-09-20T03:48:18;77850.00;;;-142.75;100.00
41632;BME280;37452;51.938;4.624;2022-09-20T03:53:26;77838.19;;;-142.75;100.00
41632;BME280;37452;51.938;4.624;2022-09-20T03:56:07;77853.94;;;-142.75;100.00
41632;BME280;37452;51.938;4.624;2022-09-20T03:58:43;77842.13;;;-142.75;100.00
41632;BME280;37452;51.938;4.624;2022-09-20T04:03:42;77838.19;;;-142.75;100.00
41632;BME280;37452;51.938;4.624;2022-09-20T04:06:20;77832.28;;;-142.75;100.00
41632;BME280;37452;51.938;4.624;2022-09-20T04:09:07;77844.09;;;-142.75;100.00
41632;BME280;37452;51.938;4.624;2022-09-20T04:12:13;77857.88;;;-142.75;100.00
41632;BME280;37452;51.938;4.624;2022-09-20T04:14:36;77857.88;;;-142.75;100.00
41632;BME280;37452;51.938;4.624;2022-09-20T04:17:10;77853.94;;;-142.75;100.00
41632;BME280;37452;51.938;4.624;2022-09-20T04:19:50;77857.88;;;-142.75;100.00
41632;BME280;37452;51.938;4.624;2022-09-20T04:22:18;77861.81;;;-142.75;100.00
41632;BME280;37452;51.938;4.624;2022-09-20T04:24:51;77863.78;;;-142.75;100.00
41632;BME280;37452;51.938;4.624;2022-09-20T04:32:38;77869.69;;;-142.75;100.00
41632;BME280;37452;51.938;4.624;2022-09-20T04:37:57;77877.56;;;-142.75;100.00
41632;BME280;37452;51.938;4.624;2022-09-20T04:46:16;77873.63;;;-142.75;100.00
41632;BME280;37452;51.938;4.624;2022-09-20T04:58:32;77861.81;;;-142.75;100.00
41632;BME280;37452;51.938;4.624;2022-09-20T05:32:20;77883.47;;;-142.75;100.00
41632;BME280;37452;51.938;4.624;2022-09-20T05:34:51;77873.63;;;-142.75;100.00
41632;BME280;37452;51.938;4.624;2022-09-20T05:37:38;77873.63;;;-142.75;100.00
41632;BME280;37452;51.938;4.624;2022-09-20T05:42:48;77875.59;;;-142.75;100.00
41632;BME280;37452;51.938;4.624;2022-09-20T05:47:54;77877.56;;;-142.75;100.00
41632;BME280;37452;51.938;4.624;2022-09-20T05:50:35;77881.50;;;-142.75;100.00
41632;BME280;37452;51.938;4.624;2022-09-20T05:53:25;77871.66;;;-142.75;100.00
41632;BME280;37452;51.938;4.624;2022-09-20T05:58:36;77863.78;;;-142.75;100.00
41632;BME280;37452;51.938;4.624;2022-09-20T06:01:17;77853.94;;;-142.75;100.00
41632;BME280;37452;51.938;4.624;2022-09-20T06:03:48;77844.09;;;-142.75;100.00
41632;BME280;37452;51.938;4.624;2022-09-20T06:14:15;77832.28;;;-142.75;100.00
41632;BME280;37452;51.938;4.624;2022-09-20T06:16:47;77818.50;;;-142.75;100.00
41632;BME280;37452;51.938;4.624;2022-09-20T06:19:35;77808.66;;;-142.75;100.00
41632;BME280;37452;51.938;4.624;2022-09-20T06:22:06;77802.75;;;-142.75;100.00
41632;BME280;37452;51.938;4.624;2022-09-20T06:27:15;77783.06;;;-142.75;100.00
41632;BME280;37452;51.938;4.624;2022-09-20T06:29:43;77777.16;;;-142.75;100.00
41632;BME280;37452;51.938;4.624;2022-09-20T06:32:15;77753.53;;;-142.75;100.00
41632;BME280;37452;51.938;4.624;2022-09-20T06:34:40;77731.88;;;-142.75;100.00
41632;BME280;37452;51.938;4.624;2022-09-20T06:40:02;77700.34;;;-142.75;100.00
41632;BME280;37452;51.938;4.624;2022-09-20T06:42:47;77680.66;;;-142.75;100.00
41632;BME280;37452;51.938;4.624;2022-09-20T06:45:13;77678.69;;;-142.75;100.00
41632;BME280;37452;51.938;4.624;2022-09-20T06:47:38;77676.72;;;-142.75;100.00
41632;BME280;37452;51.938;4.624;2022-09-20T06:50:04;77684.59;;;-142.75;100.00
41632;BME280;37452;51.938;4.624;2022-09-20T06:52:30;77680.66;;;-142.75;100.00
41632;BME280;37452;51.938;4.624;2022-09-20T06:54:55;77666.88;;;-142.75;100.00
41632;BME280;37452;51.938;4.624;2022-09-20T06:57:27;77637.34;;;-142.75;100.00
41632;BME280;37452;51.938;4.624;2022-09-20T06:59:54;77611.75;;;-142.75;100.00
41632;BME280;37452;51.938;4.624;2022-09-20T07:02:19;77582.22;;;-142.75;100.00
41632;BME280;37452;51.938;4.624;2022-09-20T07:04:44;77562.53;;;-142.75;100.00
41632;BME280;37452;51.938;4.624;2022-09-20T07:07:11;77548.75;;;-142.75;100.00
41632;BME280;37452;51.938;4.624;2022-09-20T07:09:39;77531.03;;;-142.75;100.00
41632;BME280;37452;51.938;4.624;2022-09-20T07:12:04;77503.47;;;-142.75;100.00
41632;BME280;37452;51.938;4.624;2022-09-20T07:14:31;77464.09;;;-142.75;100.00
41632;BME280;37452;51.938;4.624;2022-09-20T07:16:56;77444.38;;;-142.75;100.00
41632;BME280;37452;51.938;4.624;2022-09-20T07:19:21;77432.56;;;-142.75;100.00
41632;BME280;37452;51.938;4.624;2022-09-20T07:21:47;77420.75;;;-142.75;100.00
41632;BME280;37452;51.938;4.624;2022-09-20T07:24:12;77395.16;;;-142.75;100.00
41632;BME280;37452;51.938;4.624;2022-09-20T07:26:39;77357.75;;;-142.75;100.00
41632;BME280;37452;51.938;4.624;2022-09-20T07:29:04;77343.97;;;-142.75;100.00
41632;BME280;37452;51.938;4.624;2022-09-20T07:31:31;77310.50;;;-142.75;100.00
41632;BME280;37452;51.938;4.624;2022-09-20T07:33:57;77294.75;;;-142.75;100.00
41632;BME280;37452;51.938;4.624;2022-09-20T07:36:22;77306.56;;;-142.75;100.00
41632;BME280;37452;51.938;4.624;2022-09-20T07:38:48;77288.84;;;-142.75;100.00
41632;BME280;37452;51.938;4.624;2022-09-20T07:41:14;77253.41;;;-142.75;100.00
41632;BME280;37452;51.938;4.624;2022-09-20T07:43:40;77223.88;;;-142.75;100.00
41632;BME280;37452;51.938;4.624;2022-09-20T07:46:06;77233.72;;;-142.75;100.00
41632;BME280;37452;51.938;4.624;2022-09-20T07:48:32;77239.63;;;-142.75;100.00
41632;BME280;37452;51.938;4.624;2022-09-20T07:50:59;77216.00;;;-142.75;100.00
41632;BME280;37452;51.938;4.624;2022-09-20T07:53:26;77184.50;;;-142.75;100.00
41632;BME280;37452;51.938;4.624;2022-09-20T07:55:55;77164.81;;;-142.75;100.00
41632;BME280;37452;51.938;4.624;2022-09-20T07:58:20;77160.88;;;-142.75;100.00
41632;BME280;37452;51.938;4.624;2022-09-20T08:00:50;77162.84;;;-142.75;100.00
41632;BME280;37452;51.938;4.624;2022-09-20T08:03:15;77149.06;;;-142.75;100.00
41632;BME280;37452;51.938;4.624;2022-09-20T08:05:40;77133.31;;;-142.75;100.00
41632;BME280;37452;51.938;4.624;2022-09-20T08:08:05;77129.38;;;-142.75;100.00
41632;BME280;37452;51.938;4.624;2022-09-20T08:10:31;77088.03;;;-142.75;100.00
41632;BME280;37452;51.938;4.624;2022-09-20T08:12:58;77074.25;;;-142.75;100.00
41632;BME280;37452;51.938;4.624;2022-09-20T08:15:23;77082.13;;;-142.75;100.00
41632;BME280;37452;51.938;4.624;2022-09-20T08:17:49;77046.69;;;-142.75;100.00
41632;BME280;37452;51.938;4.624;2022-09-20T08:20:15;77038.81;;;-142.75;100.00
41632;BME280;37452;51.938;4.624;2022-09-20T08:22:40;77038.81;;;-142.75;100.00
41632;BME280;37452;51.938;4.624;2022-09-20T08:25:07;77030.94;;;-142.75;100.00
41632;BME280;37452;51.938;4.624;2022-09-20T08:27:32;77027.00;;;-142.75;100.00
41632;BME280;37452;51.938;4.624;2022-09-20T08:29:57;77038.81;;;-142.75;100.00
41632;BME280;37452;51.938;4.624;2022-09-20T08:32:23;77052.59;;;-142.75;100.00
41632;BME280;37452;51.938;4.624;2022-09-20T08:34:48;77030.94;;;-142.75;100.00
41632;BME280;37452;51.938;4.624;2022-09-20T08:37:13;77005.34;;;-142.75;100.00
41632;BME280;37452;51.938;4.624;2022-09-20T08:39:39;77017.16;;;-142.75;100.00
41632;BME280;37452;51.938;4.624;2022-09-20T08:42:08;76999.44;;;-142.75;100.00
41632;BME280;37452;51.938;4.624;2022-09-20T08:44:42;77023.06;;;-142.75;100.00
41632;BME280;37452;51.938;4.624;2022-09-20T08:47:18;76987.63;;;-142.75;100.00
41632;BME280;37452;51.938;4.624;2022-09-20T08:49:45;76977.78;;;-142.75;100.00
41632;BME280;37452;51.938;4.624;2022-09-20T08:52:14;76958.09;;;-142.75;100.00
41632;BME280;37452;51.938;4.624;2022-09-20T08:54:40;76956.13;;;-142.75;100.00
41632;BME280;37452;51.938;4.624;2022-09-20T08:57:13;76952.19;;;-142.75;100.00
41632;BME280;37452;51.938;4.624;2022-09-20T08:59:38;76967.94;;;-142.75;100.00
41632;BME280;37452;51.938;4.624;2022-09-20T09:02:07;76965.97;;;-142.75;100.00
41632;BME280;37452;51.938;4.624;2022-09-20T09:04:36;76973.84;;;-142.75;100.00
41632;BME280;37452;51.938;4.624;2022-09-20T09:07:01;76975.81;;;-142.75;100.00
41632;BME280;37452;51.938;4.624;2022-09-20T09:09:27;76956.13;;;-142.75;100.00
41632;BME280;37452;51.938;4.624;2022-09-20T09:11:53;76920.69;;;-142.75;100.00
41632;BME280;37452;51.938;4.624;2022-09-20T09:17:06;76877.38;;;-142.75;100.00
41632;BME280;37452;51.938;4.624;2022-09-20T09:19:32;76887.22;;;-142.75;100.00
41632;BME280;37452;51.938;4.624;2022-09-20T09:22:07;76863.59;;;-142.75;100.00
41632;BME280;37452;51.938;4.624;2022-09-20T09:24:33;76863.59;;;-142.75;94.29
41632;BME280;37452;51.938;4.624;2022-09-20T09:27:15;76914.78;;;-142.75;91.31
41632;BME280;37452;51.938;4.624;2022-09-20T09:29:50;76924.63;;;-142.75;100.00
41632;BME280;37452;51.938;4.624;2022-09-20T09:32:23;76893.13;;;-142.75;100.00
41632;BME280;37452;51.938;4.624;2022-09-20T09:34:48;76881.31;;;-142.75;97.80
41632;BME280;37452;51.938;4.624;2022-09-20T09:37:27;76843.91;;;-142.75;98.67
41632;BME280;37452;51.938;4.624;2022-09-20T09:40:28;76871.47;;;-142.75;97.18
41632;BME280;37452;51.938;4.624;2022-09-20T09:42:53;76895.09;;;-142.75;97.42
41632;BME280;37452;51.938;4.624;2022-09-20T09:45:23;76889.19;;;-142.75;98.89
41632;BME280;37452;51.938;4.624;2022-09-20T09:47:52;76928.56;;;-142.75;97.51
41632;BME280;37452;51.938;4.624;2022-09-20T09:50:25;76938.41;;;-142.75;100.00
41632;BME280;37452;51.938;4.624;2022-09-20T09:58:30;76861.63;;;-142.75;92.26
41632;BME280;37452;51.938;4.624;2022-09-20T10:00:58;76855.72;;;-142.75;98.67
41632;BME280;37452;51.938;4.624;2022-09-20T10:03:33;76853.75;;;-142.75;94.03
41632;BME280;37452;51.938;4.624;2022-09-20T10:06:36;76777.00;;;-142.75;91.76
41632;BME280;37452;51.938;4.624;2022-09-20T10:09:30;76792.75;;;-142.75;79.62
41632;BME280;37452;51.938;4.624;2022-09-20T10:14:31;76708.09;;;-142.75;81.75
41632;BME280;37452;51.938;4.624;2022-09-20T10:24:48;76804.53;;;-142.75;82.00
41632;BME280;37452;51.938;4.624;2022-09-20T10:30:07;76920.69;;;-142.75;95.53
41632;BME280;37452;51.938;4.624;2022-09-20T10:40:28;77253.41;;;-142.75;100.00
41632;BME280;37452;51.938;4.624;2022-09-20T10:43:54;77279.00;;;-142.75;100.00
41632;BME280;37452;51.938;4.624;2022-09-20T10:48:40;77383.34;;;-142.75;100.00
41632;BME280;37452;51.938;4.624;2022-09-20T10:51:24;77389.25;;;-142.75;100.00
41632;BME280;37452;51.938;4.624;2022-09-20T10:54:08;77389.25;;;-142.75;100.00
41632;BME280;37452;51.938;4.624;2022-09-20T10:56:39;77393.19;;;-142.75;100.00
41632;BME280;37452;51.938;4.624;2022-09-20T10:59:17;77403.03;;;-142.75;100.00
41632;BME280;37452;51.938;4.624;2022-09-20T11:01:53;77408.94;;;-142.75;100.00
41632;BME280;37452;51.938;4.624;2022-09-20T11:07:16;77408.94;;;-142.75;100.00
41632;BME280;37452;51.938;4.624;2022-09-20T11:09:48;77414.84;;;-142.75;100.00
41632;BME280;37452;51.938;4.624;2022-09-20T11:12:22;77338.06;;;-142.75;100.00
41632;BME280;37452;51.938;4.624;2022-09-20T11:14:51;77263.25;;;-142.75;100.00
41632;BME280;37452;51.938;4.624;2022-09-20T11:17:21;77208.13;;;-142.75;100.00
41632;BME280;37452;51.938;4.624;2022-09-20T11:22:14;77038.81;;;-142.75;100.00
41632;BME280;37452;51.938;4.624;2022-09-20T11:24:57;76983.69;;;-142.75;100.00
41632;BME280;37452;51.938;4.624;2022-09-20T11:27:28;76916.75;;;-142.75;100.00
41632;BME280;37452;51.938;4.624;2022-09-20T11:32:42;76834.06;;;-142.75;94.56
41632;BME280;37452;51.938;4.624;2022-09-20T11:37:35;76769.13;;;-142.75;85.29
41632;BME280;37452;51.938;4.624;2022-09-20T11:40:09;76767.16;;;-142.75;92.08
41632;BME280;37452;51.938;4.624;2022-09-20T11:42:38;76800.63;;;-142.75;89.15
41632;BME280;37452;51.938;4.624;2022-09-20T11:45:05;76759.28;;;-142.75;86.82
41632;BME280;37452;51.938;4.624;2022-09-20T11:47:50;76901.00;;;-142.75;82.51
41632;BME280;37452;51.938;4.624;2022-09-20T11:58:06;77097.88;;;-142.75;100.00
41632;BME280;37452;51.938;4.624;2022-09-20T12:00:33;77105.75;;;-142.75;100.00
41632;BME280;37452;51.938;4.624;2022-09-20T12:02:59;77137.25;;;-142.75;100.00
41632;BME280;37452;51.938;4.624;2022-09-20T12:08:00;77204.19;;;-142.75;100.00
41632;BME280;37452;51.938;4.624;2022-09-20T12:10:27;77223.88;;;-142.75;100.00
41632;BME280;37452;51.938;4.624;2022-09-20T12:12:55;77237.66;;;-142.75;100.00
41632;BME280;37452;51.938;4.624;2022-09-20T12:15:31;77251.44;;;-142.75;100.00
41632;BME280;37452;51.938;4.624;2022-09-20T12:25:57;77269.16;;;-142.75;100.00
41632;BME280;37452;51.938;4.624;2022-09-20T12:28:37;77265.22;;;-142.75;100.00
41632;BME280;37452;51.938;4.624;2022-09-20T12:33:59;77259.31;;;-142.75;100.00
41632;BME280;37452;51.938;4.624;2022-09-20T12:36:26;77267.19;;;-142.75;100.00
41632;BME280;37452;51.938;4.624;2022-09-20T12:38:54;77292.78;;;-142.75;100.00
41632;BME280;37452;51.938;4.624;2022-09-20T12:41:20;77310.50;;;-142.75;100.00
41632;BME280;37452;51.938;4.624;2022-09-20T12:43:48;77290.81;;;-142.75;100.00
41632;BME280;37452;51.938;4.624;2022-09-20T12:46:21;77286.88;;;-142.75;100.00
41632;BME280;37452;51.938;4.624;2022-09-20T12:48:48;77282.94;;;-142.75;100.00
41632;BME280;37452;51.938;4.624;2022-09-20T12:54:07;77302.63;;;-142.75;100.00
41632;BME280;37452;51.938;4.624;2022-09-20T12:56:35;77288.84;;;-142.75;100.00
41632;BME280;37452;51.938;4.624;2022-09-20T12:59:00;77229.78;;;-142.75;100.00
41632;BME280;37452;51.938;4.624;2022-09-20T13:01:31;77225.84;;;-142.75;100.00
41632;BME280;37452;51.938;4.624;2022-09-20T13:06:42;77137.25;;;-142.75;100.00
41632;BME280;37452;51.938;4.624;2022-09-20T13:09:09;77153.00;;;-142.75;99.06
41632;BME280;37452;51.938;4.624;2022-09-20T13:19:31;77139.22;;;-142.75;100.00
41632;BME280;37452;51.938;4.624;2022-09-20T13:22:00;77164.81;;;-142.75;100.00
41632;BME280;37452;51.938;4.624;2022-09-20T13:24:27;77156.94;;;-142.75;100.00
41632;BME280;37452;51.938;4.624;2022-09-20T13:26:58;77182.53;;;-142.75;95.77
41632;BME280;37452;51.938;4.624;2022-09-20T13:29:33;77210.09;;;-142.75;94.06
41632;BME280;37452;51.938;4.624;2022-09-20T13:34:39;77164.81;;;-142.75;91.18
41632;BME280;37452;51.938;4.624;2022-09-20T13:37:07;77156.94;;;-142.75;96.21
41632;BME280;37452;51.938;4.624;2022-09-20T13:39:39;77180.56;;;-142.75;92.64
41632;BME280;37452;51.938;4.624;2022-09-20T13:42:10;77182.53;;;-142.75;97.17
41632;BME280;37452;51.938;4.624;2022-09-20T13:44:40;77182.53;;;-142.75;87.10
41632;BME280;37452;51.938;4.624;2022-09-20T13:47:22;77178.59;;;-142.75;85.62
41632;BME280;37452;51.938;4.624;2022-09-20T13:49:48;77176.63;;;-142.75;84.67
41632;BME280;37452;51.938;4.624;2022-09-20T13:52:24;77188.44;;;-142.75;90.35
41632;BME280;37452;51.938;4.624;2022-09-20T13:54:49;77184.50;;;-142.75;92.55
41632;BME280;37452;51.938;4.624;2022-09-20T13:57:17;77188.44;;;-142.75;93.36
41632;BME280;37452;51.938;4.624;2022-09-20T13:59:45;77200.25;;;-142.75;85.52
41632;BME280;37452;51.938;4.624;2022-09-20T14:02:18;77196.31;;;-142.75;87.32
41632;BME280;37452;51.938;4.624;2022-09-20T14:04:44;77192.38;;;-142.75;89.32
41632;BME280;37452;51.938;4.624;2022-09-20T14:07:11;77214.03;;;-142.75;88.65
41632;BME280;37452;51.938;4.624;2022-09-20T14:09:38;77204.19;;;-142.75;93.12
41632;BME280;37452;51.938;4.624;2022-09-20T14:12:04;77200.25;;;-142.75;94.72
41632;BME280;37452;51.938;4.624;2022-09-20T14:14:30;77200.25;;;-142.75;88.26
41632;BME280;37452;51.938;4.624;2022-09-20T14:16:56;77208.13;;;-142.75;89.54
41632;BME280;37452;51.938;4.624;2022-09-20T14:19:25;77208.13;;;-142.75;90.98
41632;BME280;37452;51.938;4.624;2022-09-20T14:21:53;77219.94;;;-142.75;87.87
41632;BME280;37452;51.938;4.624;2022-09-20T14:24:26;77223.88;;;-142.75;87.68
41632;BME280;37452;51.938;4.624;2022-09-20T14:26:59;77253.41;;;-142.75;90.90
41632;BME280;37452;51.938;4.624;2022-09-20T14:31:54;77280.97;;;-142.75;94.03
41632;BME280;37452;51.938;4.624;2022-09-20T14:34:21;77294.75;;;-142.75;94.95
41632;BME280;37452;51.938;4.624;2022-09-20T14:36:47;77306.56;;;-142.75;91.91
41632;BME280;37452;51.938;4.624;2022-09-20T14:39:14;77312.47;;;-142.75;84.54
41632;BME280;37452;51.938;4.624;2022-09-20T14:41:40;77330.19;;;-142.75;84.63
41632;BME280;37452;51.938;4.624;2022-09-20T14:44:15;77349.88;;;-142.75;85.31
41632;BME280;37452;51.938;4.624;2022-09-20T14:46:46;77342.00;;;-142.75;86.66
41632;BME280;37452;51.938;4.624;2022-09-20T14:49:18;77340.03;;;-142.75;89.06
41632;BME280;37452;51.938;4.624;2022-09-20T14:51:43;77332.16;;;-142.75;86.25
41632;BME280;37452;51.938;4.624;2022-09-20T14:56:41;77328.22;;;-142.75;86.49
41632;BME280;37452;51.938;4.624;2022-09-20T15:01:33;77318.38;;;-142.75;84.03
41632;BME280;37452;51.938;4.624;2022-09-20T15:04:04;77316.41;;;-142.75;84.66
41632;BME280;37452;51.938;4.624;2022-09-20T15:06:30;77338.06;;;-142.75;83.72
41632;BME280;37452;51.938;4.624;2022-09-20T15:08:55;77326.25;;;-142.75;84.70
41632;BME280;37452;51.938;4.624;2022-09-20T15:11:23;77320.34;;;-142.75;84.18
41632;BME280;37452;51.938;4.624;2022-09-20T15:13:48;77342.00;;;-142.75;84.51
41632;BME280;37452;51.938;4.624;2022-09-20T15:16:14;77340.03;;;-142.75;86.90
41632;BME280;37452;51.938;4.624;2022-09-20T15:18:41;77343.97;;;-142.75;82.89
41632;BME280;37452;51.938;4.624;2022-09-20T15:21:07;77340.03;;;-142.75;82.76
41632;BME280;37452;51.938;4.624;2022-09-20T15:23:33;77338.06;;;-142.75;82.13
41632;BME280;37452;51.938;4.624;2022-09-20T15:25:59;77342.00;;;-142.75;86.71
41632;BME280;37452;51.938;4.624;2022-09-20T15:28:24;77345.94;;;-142.75;86.76
41632;BME280;37452;51.938;4.624;2022-09-20T15:30:51;77349.88;;;-142.75;88.03
41632;BME280;37452;51.938;4.624;2022-09-20T15:33:17;77373.50;;;-142.75;88.52
41632;BME280;37452;51.938;4.624;2022-09-20T15:35:43;77365.63;;;-142.75;88.62
41632;BME280;37452;51.938;4.624;2022-09-20T15:38:09;77369.56;;;-142.75;91.48
41632;BME280;37452;51.938;4.624;2022-09-20T15:40:39;77367.59;;;-142.75;89.63
41632;BME280;37452;51.938;4.624;2022-09-20T15:43:04;77379.41;;;-142.75;88.90
41632;BME280;37452;51.938;4.624;2022-09-20T15:45:30;77389.25;;;-142.75;90.61
41632;BME280;37452;51.938;4.624;2022-09-20T15:47:55;77381.38;;;-142.75;91.79
41632;BME280;37452;51.938;4.624;2022-09-20T15:50:21;77369.56;;;-142.75;92.92
41632;BME280;37452;51.938;4.624;2022-09-20T15:52:47;77377.44;;;-142.75;86.26
41632;BME280;37452;51.938;4.624;2022-09-20T15:55:15;77377.44;;;-142.75;84.23
41632;BME280;37452;51.938;4.624;2022-09-20T15:57:40;77395.16;;;-142.75;89.98
41632;BME280;37452;51.938;4.624;2022-09-20T16:00:06;77389.25;;;-142.75;92.91
41632;BME280;37452;51.938;4.624;2022-09-20T16:02:31;77387.28;;;-142.75;95.91
41632;BME280;37452;51.938;4.624;2022-09-20T16:04:57;77389.25;;;-142.75;100.00
41632;BME280;37452;51.938;4.624;2022-09-20T16:07:23;77393.19;;;-142.75;100.00
41632;BME280;37452;51.938;4.624;2022-09-20T16:09:52;77397.13;;;-142.75;100.00
41632;BME280;37452;51.938;4.624;2022-09-20T16:12:18;77395.16;;;-142.75;100.00
41632;BME280;37452;51.938;4.624;2022-09-20T16:14:43;77389.25;;;-142.75;100.00
41632;BME280;37452;51.938;4.624;2022-09-20T16:17:08;77393.19;;;-142.75;100.00
41632;BME280;37452;51.938;4.624;2022-09-20T16:19:34;77397.13;;;-142.75;100.00
41632;BME280;37452;51.938;4.624;2022-09-20T16:21:59;77397.13;;;-142.75;100.00
41632;BME280;37452;51.938;4.624;2022-09-20T16:24:28;77408.94;;;-142.75;100.00
41632;BME280;37452;51.938;4.624;2022-09-20T16:26:56;77418.78;;;-142.75;100.00
41632;BME280;37452;51.938;4.624;2022-09-20T16:29:22;77424.69;;;-142.75;100.00
41632;BME280;37452;51.938;4.624;2022-09-20T16:31:49;77428.63;;;-142.75;100.00
41632;BME280;37452;51.938;4.624;2022-09-20T16:34:21;77424.69;;;-142.75;100.00
41632;BME280;37452;51.938;4.624;2022-09-20T16:36:48;77436.50;;;-142.75;100.00
41632;BME280;37452;51.938;4.624;2022-09-20T16:39:15;77438.47;;;-142.75;100.00
41632;BME280;37452;51.938;4.624;2022-09-20T16:41:41;77438.47;;;-142.75;100.00
41632;BME280;37452;51.938;4.624;2022-09-20T16:44:06;77456.22;;;-142.75;100.00
41632;BME280;37452;51.938;4.624;2022-09-20T16:46:32;77458.16;;;-142.75;100.00
41632;BME280;37452;51.938;4.624;2022-09-20T16:48:59;77468.03;;;-142.75;100.00
41632;BME280;37452;51.938;4.624;2022-09-20T16:51:28;77487.72;;;-142.75;100.00
41632;BME280;37452;51.938;4.624;2022-09-20T16:53:55;77489.69;;;-142.75;100.00
41632;BME280;37452;51.938;4.624;2022-09-20T16:56:22;77497.56;;;-142.75;100.00
41632;BME280;37452;51.938;4.624;2022-09-20T16:58:48;77503.47;;;-142.75;100.00
41632;BME280;37452;51.938;4.624;2022-09-20T17:01:13;77523.16;;;-142.75;100.00
41632;BME280;37452;51.938;4.624;2022-09-20T17:03:39;77533.00;;;-142.75;100.00
41632;BME280;37452;51.938;4.624;2022-09-20T17:06:05;77544.81;;;-142.75;100.00